Weather History for Bogalusa, LA

Change the Weather History Date:

Friday, March 15, 2013

  Actual Average Record
Temperature  
Mean Temperature 56 °F -  
Max Temperature 74 °F 72 °F 74 °F (2013)
Min Temperature 38 °F 48 °F 38 °F (2013)
Degree Days  
Heating Degree Days 9    
Growing Degree Days 6 (Base 50)    
Moisture  
Dew Point 16 °F    
Average Humidity 42    
Maximum Humidity 95    
Minimum Humidity 4    
Precipitation  
Precipitation 0.00 in - - ()
Sea Level Pressure  
Sea Level Pressure 30.23 in    
Wind  
Wind Speed 4 mph (SW)    
Max Wind Speed 15 mph    
Max Gust Speed 21 mph    
Visibility 10 miles    
Events      
Averages and records for this station are not official NWS values.
T = Trace of Precipitation, MM = Missing Value Source: NWS Daily Summary

Daily Weather History Graph

Daily Weather History Graph

Search for Another Location

Airport:

Trip Planner

Search our weather history database for the weather conditions in past years. The results will help you decide how hot, cold, wet, or windy it might be!

Date:

Astronomy

Mar. 15, 2013 Rise Set
Actual Time 7:09 AM CDT 7:07 PM CDT
Civil Twilight 6:45 AM CDT 7:31 PM CDT
Nautical Twilight 6:17 AM CDT 7:59 PM CDT
Astronomical Twilight 5:48 AM CDT 8:28 PM CDT
Moon 9:16 AM CDT (3/15) 11:02 PM CDT (3/15)
Length of Visible Light 12h 46m
Length of Day
11h 58m
Waxing Crescent, 15% of the Moon is Illuminated
Mar 15
Waxing Crescent
Mar 19
First Quarter
Mar 27
Full
Apr 2
Last Quarter
Apr 10
New

Hourly Weather History & Observations

Time (CDT) Temp. Dew Point Humidity Pressure Visibility Wind Dir Wind Speed Gust Speed Precip Events Conditions
12:15 AM 42.6 °F 39.0 °F 87% 30.33 in 10.0 mi Calm Calm - N/A   Unknown
12:35 AM 43.0 °F 39.4 °F 87% 30.32 in 10.0 mi Calm Calm - N/A   Unknown
12:55 AM 42.3 °F 39.0 °F 88% 30.31 in 10.0 mi Calm Calm - N/A   Unknown
1:15 AM 42.3 °F 39.0 °F 88% 30.31 in 10.0 mi Calm Calm - N/A   Unknown
1:35 AM 43.0 °F 39.2 °F 86% 30.30 in 10.0 mi Calm Calm - N/A   Unknown
1:55 AM 46.4 °F 29.7 °F 52% 30.30 in 10.0 mi Calm Calm - N/A   Unknown
2:15 AM 46.2 °F 28.9 °F 51% 30.30 in 10.0 mi Calm Calm - N/A   Unknown
2:35 AM 47.1 °F 28.8 °F 49% 30.29 in 10.0 mi Calm Calm - N/A   Unknown
2:55 AM 44.2 °F 30.2 °F 58% 30.28 in 10.0 mi Calm Calm - N/A   Unknown
3:15 AM 43.5 °F 30.2 °F 59% 30.27 in 10.0 mi Calm Calm - N/A   Unknown
3:35 AM 42.8 °F 39.4 °F 88% 30.27 in 10.0 mi Calm Calm - N/A   Unknown
3:55 AM 41.5 °F 39.0 °F 91% 30.26 in 10.0 mi Calm Calm - N/A   Unknown
4:15 AM 42.1 °F 39.6 °F 91% 30.26 in 10.0 mi Calm Calm - N/A   Unknown
4:35 AM 41.5 °F 39.6 °F 93% 30.26 in 10.0 mi Calm Calm - N/A   Unknown
4:55 AM 42.1 °F 38.7 °F 88% 30.26 in 10.0 mi Calm Calm - N/A   Unknown
5:15 AM 41.9 °F 39.0 °F 90% 30.26 in 10.0 mi Calm Calm - N/A   Unknown
5:35 AM 40.6 °F 38.5 °F 92% 30.27 in 10.0 mi Calm Calm - N/A   Unknown
5:55 AM 38.8 °F 36.9 °F 93% 30.28 in 10.0 mi Calm Calm - N/A   Unknown
6:15 AM 39.9 °F 38.1 °F 93% 30.28 in 10.0 mi Calm Calm - N/A   Unknown
6:35 AM 40.1 °F 38.3 °F 93% 30.29 in 10.0 mi Calm Calm - N/A   Unknown
6:55 AM 39.2 °F 37.4 °F 93% 30.29 in 10.0 mi Calm Calm - N/A   Unknown
7:15 AM 39.0 °F 37.2 °F 93% 30.30 in 10.0 mi Calm Calm - N/A   Unknown
7:35 AM 38.7 °F 37.2 °F 95% 30.29 in 10.0 mi Calm Calm - N/A   Unknown
7:55 AM 40.3 °F 38.8 °F 95% 30.30 in 10.0 mi Calm Calm - N/A   Unknown
8:15 AM 43.2 °F 41.4 °F 93% 30.31 in 10.0 mi Calm Calm - N/A   Unknown
8:35 AM 46.6 °F 43.3 °F 88% 30.31 in 10.0 mi Calm Calm - N/A   Unknown
8:55 AM 49.3 °F 35.8 °F 60% 30.32 in 10.0 mi Calm Calm - N/A   Unknown
9:15 AM 52.0 °F 35.4 °F 53% 30.32 in 10.0 mi Calm Calm - N/A   Unknown
9:35 AM 55.8 °F 35.8 °F 47% 30.32 in 10.0 mi WSW 5.8 mph - N/A   Unknown
9:55 AM 58.3 °F 34.0 °F 40% 30.32 in 10.0 mi SW 5.8 mph - N/A   Unknown
10:55 AM 64.0 °F 19.4 °F 18% 30.31 in 10.0 mi WSW 10.4 mph 16.1 mph N/A   Unknown
11:15 AM 65.1 °F 15.6 °F 15% 30.30 in 10.0 mi WSW 6.9 mph - N/A   Unknown
11:35 AM 67.1 °F 5.4 °F 9% 30.29 in 10.0 mi West 9.2 mph - N/A   Unknown
11:55 AM 68.2 °F -3.8 °F 6% 30.28 in 10.0 mi SW 12.7 mph - N/A   Unknown
12:15 PM 69.3 °F -4.2 °F 5% 30.27 in 10.0 mi SW 12.7 mph 16.1 mph N/A   Unknown
12:35 PM 69.8 °F -15.2 °F 4% 30.26 in 10.0 mi SW 11.5 mph - N/A   Unknown
12:55 PM 71.4 °F -14.6 °F 4% 30.25 in 10.0 mi WSW 6.9 mph - N/A   Unknown
1:15 PM 71.6 °F -23.1 °F 4% 30.24 in 10.0 mi WSW 9.2 mph - N/A   Unknown
1:35 PM 72.1 °F -18.8 °F 4% 30.23 in 10.0 mi SW 10.4 mph 16.1 mph N/A   Unknown
1:55 PM 73.6 °F -19.8 °F 4% 30.21 in 10.0 mi SSW 9.2 mph - N/A   Unknown
2:15 PM - - N/A% 30.20 in 10.0 mi SW 12.7 mph 16.1 mph N/A   Clear
2:35 PM - - N/A% 30.18 in 10.0 mi SW 11.5 mph 16.1 mph N/A   Clear
2:55 PM 73.9 °F -27.8 °F 4% 30.17 in 10.0 mi SW 10.4 mph 16.1 mph N/A   Clear
3:15 PM 74.1 °F -14.4 °F 4% 30.16 in 10.0 mi SSW 15.0 mph 20.7 mph N/A   Clear
3:35 PM 73.4 °F -18.4 °F 4% 30.16 in 10.0 mi SW 12.7 mph 19.6 mph N/A   Clear
3:55 PM 73.8 °F -19.7 °F 4% 30.15 in 10.0 mi WSW 12.7 mph 16.1 mph N/A   Unknown
4:15 PM 73.6 °F -26.5 °F 4% 30.14 in 10.0 mi SSW 11.5 mph 18.4 mph N/A   Unknown
4:35 PM 74.1 °F -23.4 °F 4% 30.14 in 10.0 mi SW 11.5 mph 18.4 mph N/A   Unknown
4:55 PM 73.6 °F -29.6 °F 4% 30.13 in 10.0 mi SSW 13.8 mph 18.4 mph N/A   Unknown
5:15 PM 73.4 °F -30.8 °F 4% 30.14 in 10.0 mi SW 10.4 mph 17.3 mph N/A   Unknown
5:35 PM 72.7 °F -21.5 °F 4% 30.13 in 10.0 mi SSW 12.7 mph - N/A   Unknown
5:55 PM 72.3 °F -18.9 °F 4% 30.14 in 10.0 mi SSW 11.5 mph 16.1 mph N/A   Unknown
6:15 PM 71.4 °F -20.4 °F 4% 30.15 in 10.0 mi SSW 13.8 mph - N/A   Clear
6:35 PM 70.7 °F -10.7 °F 4% 30.15 in 10.0 mi SSW 10.4 mph - N/A   Clear
6:55 PM 68.9 °F 1.8 °F 7% 30.15 in 10.0 mi SSW 9.2 mph - N/A   Clear
7:15 PM 66.9 °F 10.0 °F 11% 30.15 in 10.0 mi South 6.9 mph - N/A   Clear
7:35 PM 65.3 °F 15.3 °F 14% 30.15 in 10.0 mi South 6.9 mph - N/A   Clear
7:55 PM 64.6 °F 15.6 °F 15% 30.15 in 10.0 mi South 6.9 mph - N/A   Clear
8:15 PM 64.4 °F 13.3 °F 14% 30.16 in 10.0 mi SSW 10.4 mph - N/A   Clear
8:35 PM 63.0 °F 16.0 °F 16% 30.16 in 10.0 mi SSW 9.2 mph - N/A   Clear
8:55 PM 61.5 °F 19.0 °F 19% 30.16 in 10.0 mi SSW 6.9 mph - N/A   Clear
9:15 PM 61.0 °F 20.3 °F 21% 30.16 in 10.0 mi SSW 8.1 mph - N/A   Unknown
9:35 PM 60.6 °F 21.6 °F 22% 30.16 in 10.0 mi SSW 8.1 mph - N/A   Unknown
9:55 PM 59.5 °F 23.9 °F 25% 30.16 in 10.0 mi SSW 8.1 mph - N/A   Unknown
10:15 PM 59.0 °F 25.2 °F 27% 30.17 in 10.0 mi SSW 8.1 mph - N/A   Unknown
10:35 PM 58.5 °F 27.1 °F 30% 30.16 in 10.0 mi SSW 8.1 mph - N/A   Unknown
10:55 PM 57.9 °F 29.1 °F 33% 30.16 in 10.0 mi SSW 8.1 mph - N/A   Unknown
11:15 PM 56.7 °F 31.1 °F 38% 30.16 in 10.0 mi SW 6.9 mph - N/A   Unknown
11:35 PM 56.1 °F 32.0 °F 40% 30.16 in 10.0 mi SW 8.1 mph - N/A   Unknown
11:55 PM 55.9 °F 32.0 °F 40% 30.16 in 10.0 mi SW 6.9 mph - N/A   Unknown